createdAt,value
2022-09-25T00:02:00.397Z,12.88
2022-09-25T00:04:31.643Z,12.25
2022-09-25T00:07:02.150Z,12.07
2022-09-25T00:09:32.838Z,12.18
2022-09-25T00:12:03.527Z,11.88
2022-09-25T00:14:33.841Z,11.33
2022-09-25T00:17:04.233Z,12.13
2022-09-25T00:19:52.644Z,12.15
2022-09-25T00:22:26.266Z,12.28
2022-09-25T00:24:57.985Z,11.50
2022-09-25T00:27:28.379Z,11.28
2022-09-25T00:29:59.841Z,10.32
2022-09-25T00:32:30.927Z,10.00
2022-09-25T00:35:01.583Z,10.45
2022-09-25T00:37:37.036Z,10.32
2022-09-25T00:40:08.196Z,10.35
2022-09-25T00:42:38.685Z,10.05
2022-09-25T00:45:12.248Z,10.20
2022-09-25T00:47:57.886Z,10.18
2022-09-25T00:50:49.491Z,9.35
2022-09-25T00:53:28.111Z,9.95
2022-09-25T00:56:00.344Z,9.50
2022-09-25T00:58:33.709Z,8.83
2022-09-25T01:01:04.475Z,9.60
2022-09-25T01:03:35.835Z,8.85
2022-09-25T01:06:06.581Z,9.23
2022-09-25T01:08:37.764Z,8.58
2022-09-25T01:11:08.502Z,8.60
2022-09-25T01:13:39.078Z,9.70
2022-09-25T01:16:18.501Z,8.65
2022-09-25T01:18:52.375Z,8.80
2022-09-25T01:21:40.125Z,9.00
2022-09-25T01:24:38.492Z,9.08
2022-09-25T01:27:33.755Z,8.10
2022-09-25T01:30:18.248Z,8.05
2022-09-25T01:32:54.261Z,7.65
2022-09-25T01:35:39.381Z,8.08
2022-09-25T01:38:36.810Z,7.55
2022-09-25T01:41:12.999Z,7.53
2022-09-25T01:43:46.448Z,7.90
2022-09-25T01:46:22.752Z,7.50
2022-09-25T01:48:56.424Z,8.15
2022-09-25T01:51:29.879Z,7.95
2022-09-25T01:54:03.407Z,7.35
2022-09-25T01:56:39.694Z,7.70
2022-09-25T01:59:13.182Z,7.20
2022-09-25T02:01:45.851Z,8.00
2022-09-25T02:04:25.508Z,7.50
2022-09-25T02:06:58.906Z,8.50
2022-09-25T02:09:35.201Z,7.33
2022-09-25T02:12:14.408Z,8.00
2022-09-25T02:14:48.099Z,7.62
2022-09-25T02:17:23.239Z,7.92
2022-09-25T02:20:11.181Z,8.03
2022-09-25T02:22:41.810Z,7.83
2022-09-25T02:25:16.997Z,8.73
2022-09-25T02:27:47.838Z,7.75
2022-09-25T02:30:18.554Z,8.83
2022-09-25T02:32:48.935Z,7.50
2022-09-25T02:35:19.416Z,7.25
2022-09-25T02:37:49.822Z,7.40
2022-09-25T02:40:22.929Z,7.60
2022-09-25T02:43:08.247Z,7.75
2022-09-25T02:45:44.741Z,8.25
2022-09-25T02:48:37.574Z,7.50
2022-09-25T02:51:25.984Z,7.60
2022-09-25T02:54:11.447Z,7.75
2022-09-25T02:56:44.994Z,7.75
2022-09-25T02:59:20.992Z,7.55
2022-09-25T03:01:52.584Z,7.67
2022-09-25T03:04:24.534Z,7.35
2022-09-25T03:06:55.769Z,7.12
2022-09-25T03:09:27.450Z,7.50
2022-09-25T03:11:57.840Z,7.37
2022-09-25T03:14:28.629Z,7.72
2022-09-25T03:17:03.570Z,7.37
2022-09-25T03:19:34.859Z,7.72
2022-09-25T03:22:05.618Z,7.62
2022-09-25T03:24:36.902Z,7.65
2022-09-25T03:27:07.304Z,8.73
2022-09-25T03:29:37.675Z,7.55
2022-09-25T03:32:07.986Z,7.67
2022-09-25T03:34:38.286Z,7.53
2022-09-25T03:37:08.775Z,7.42
2022-09-25T03:39:39.143Z,7.72
2022-09-25T03:42:09.461Z,7.80
2022-09-25T03:44:39.821Z,8.00
2022-09-25T03:47:10.143Z,7.85
2022-09-25T03:49:40.605Z,8.05
2022-09-25T03:52:12.738Z,8.18
2022-09-25T03:54:43.793Z,7.58
2022-09-25T03:57:14.966Z,7.92
2022-09-25T03:59:45.347Z,8.08
2022-09-25T04:02:15.939Z,8.13
2022-09-25T04:04:46.460Z,7.95
2022-09-25T04:07:16.887Z,7.90
2022-09-25T04:09:47.280Z,8.35
2022-09-25T04:12:17.933Z,8.68
2022-09-25T04:14:48.421Z,8.40
2022-09-25T04:17:18.878Z,8.38
2022-09-25T04:19:49.230Z,8.40
2022-09-25T04:22:19.539Z,9.23
2022-09-25T04:24:49.911Z,9.30
2022-09-25T04:27:22.945Z,8.43
2022-09-25T04:29:53.355Z,8.83
2022-09-25T04:32:41.304Z,10.80
2022-09-25T04:35:11.878Z,14.35
2022-09-25T04:37:42.216Z,10.25
2022-09-25T04:40:12.618Z,11.25
2022-09-25T04:42:43.695Z,10.70
2022-09-25T04:45:14.823Z,9.78
2022-09-25T04:47:45.332Z,10.10
2022-09-25T04:50:15.883Z,10.38
2022-09-25T04:52:46.283Z,10.23
2022-09-25T04:55:16.943Z,9.78
2022-09-25T04:57:58.767Z,9.65
2022-09-25T05:00:26.312Z,9.48
2022-09-25T05:02:57.235Z,9.83
2022-09-25T05:05:28.305Z,9.43
2022-09-25T05:08:01.299Z,10.00
2022-09-25T05:10:35.963Z,9.60
2022-09-25T05:13:09.483Z,10.35
2022-09-25T05:15:39.862Z,9.93
2022-09-25T05:18:18.834Z,10.28
2022-09-25T05:20:50.177Z,10.00
2022-09-25T05:23:20.887Z,11.30
2022-09-25T05:25:57.084Z,10.43
2022-09-25T05:28:28.425Z,10.53
2022-09-25T05:31:04.176Z,10.68
2022-09-25T05:33:36.011Z,10.80
2022-09-25T05:36:08.029Z,10.75
2022-09-25T05:38:40.383Z,11.00
2022-09-25T05:41:11.861Z,10.95
2022-09-25T05:43:44.456Z,10.70
2022-09-25T05:46:16.158Z,10.88
2022-09-25T05:48:46.561Z,10.98
2022-09-25T05:51:16.885Z,11.08
2022-09-25T05:53:47.595Z,10.90
2022-09-25T05:56:18.018Z,10.63
2022-09-25T05:58:49.246Z,11.35
2022-09-25T06:01:20.889Z,10.93
2022-09-25T06:03:51.390Z,10.95
2022-09-25T06:06:26.722Z,11.33
2022-09-25T06:08:55.593Z,10.98
2022-09-25T06:11:27.163Z,11.50
2022-09-25T06:13:57.716Z,11.18
2022-09-25T06:16:28.386Z,10.95
2022-09-25T06:18:58.866Z,10.45
2022-09-25T06:21:29.196Z,10.32
2022-09-25T06:23:59.517Z,10.78
2022-09-25T06:26:29.923Z,10.72
2022-09-25T06:29:03.242Z,10.68
2022-09-25T06:31:32.970Z,10.63
2022-09-25T06:34:04.302Z,10.90
2022-09-25T06:36:34.820Z,14.23
2022-09-25T06:39:05.767Z,11.20
2022-09-25T06:41:36.714Z,12.10
2022-09-25T06:44:08.746Z,11.93
2022-09-25T06:46:39.193Z,11.05
2022-09-25T06:49:09.531Z,11.78
2022-09-25T06:51:40.136Z,10.40
2022-09-25T06:54:10.616Z,11.28
2022-09-25T06:56:41.253Z,16.37
2022-09-25T06:59:11.619Z,13.03
2022-09-25T07:01:42.036Z,11.88
2022-09-25T07:04:13.445Z,12.00
2022-09-25T07:06:44.041Z,11.20
2022-09-25T07:09:14.448Z,11.80
2022-09-25T07:11:46.506Z,11.83
2022-09-25T07:14:16.833Z,11.97
2022-09-25T07:16:47.166Z,12.07
2022-09-25T07:19:17.591Z,11.53
2022-09-25T07:21:48.071Z,12.20
2022-09-25T07:24:18.418Z,13.03
2022-09-25T07:26:48.846Z,11.97
2022-09-25T07:29:19.657Z,12.47
2022-09-25T07:31:50.430Z,11.85
2022-09-25T07:34:20.759Z,11.73
2022-09-25T07:36:52.909Z,11.90
2022-09-25T07:39:23.339Z,12.13
2022-09-25T07:41:55.882Z,11.43
2022-09-25T07:44:33.630Z,12.93
2022-09-25T07:46:59.169Z,12.98
2022-09-25T07:49:29.694Z,12.23
2022-09-25T07:52:00.176Z,12.05
2022-09-25T07:54:30.581Z,12.37
2022-09-25T07:57:00.983Z,11.68
2022-09-25T07:59:31.535Z,12.33
2022-09-25T08:02:02.969Z,12.03
2022-09-25T08:04:33.313Z,12.33
2022-09-25T08:07:03.618Z,12.30
2022-09-25T08:09:33.938Z,12.60
2022-09-25T08:12:04.391Z,12.13
2022-09-25T08:14:34.705Z,12.07
2022-09-25T08:17:05.232Z,12.47
2022-09-25T08:19:37.003Z,12.20
2022-09-25T08:22:07.314Z,11.83
2022-09-25T08:24:37.961Z,11.60
2022-09-25T08:27:08.498Z,12.05
2022-09-25T08:29:38.849Z,12.25
2022-09-25T08:32:09.635Z,11.70
2022-09-25T08:34:42.063Z,12.58
2022-09-25T08:37:12.565Z,14.87
2022-09-25T08:39:43.165Z,12.15
2022-09-25T08:42:17.036Z,13.32
2022-09-25T08:45:16.664Z,12.13
2022-09-25T08:47:45.408Z,11.33
2022-09-25T08:50:24.618Z,11.97
2022-09-25T08:52:58.047Z,19.00
2022-09-25T08:55:52.651Z,12.25
2022-09-25T08:58:28.504Z,12.37
2022-09-25T09:01:10.276Z,12.47
2022-09-25T09:03:46.710Z,12.35
2022-09-25T09:06:19.328Z,11.33
2022-09-25T09:09:08.081Z,11.50
2022-09-25T09:11:44.954Z,11.73
2022-09-25T09:14:18.787Z,11.70
2022-09-25T09:17:06.688Z,11.48
2022-09-25T09:19:38.193Z,11.68
2022-09-25T09:22:13.129Z,11.08
2022-09-25T09:25:01.516Z,12.10
2022-09-25T09:27:47.307Z,12.35
2022-09-25T09:30:26.532Z,11.75
2022-09-25T09:33:18.220Z,11.05
2022-09-25T09:35:54.450Z,11.75
2022-09-25T09:38:46.176Z,12.00
2022-09-25T09:41:29.181Z,11.22
2022-09-25T09:44:05.280Z,10.90
2022-09-25T09:46:56.804Z,12.40
2022-09-25T09:49:42.290Z,11.00
2022-09-25T09:52:17.234Z,12.37
2022-09-25T09:55:02.356Z,12.20
2022-09-25T09:57:38.884Z,12.00
2022-09-25T10:00:18.283Z,11.78
2022-09-25T10:03:00.916Z,12.13
2022-09-25T10:05:34.764Z,12.90
2022-09-25T10:08:05.598Z,12.43
2022-09-25T10:10:41.892Z,13.70
2022-09-25T10:13:36.112Z,12.13
2022-09-25T10:16:21.988Z,13.03
2022-09-25T10:19:07.115Z,13.75
2022-09-25T10:21:52.785Z,13.95
2022-09-25T10:24:53.524Z,20.65
2022-09-25T10:27:42.747Z,13.43
2022-09-25T10:30:17.951Z,13.88
2022-09-25T10:32:57.061Z,13.20
2022-09-25T10:35:26.399Z,20.55
2022-09-25T10:37:59.845Z,14.60
2022-09-25T10:40:38.772Z,11.90
2022-09-25T10:43:29.957Z,15.15
2022-09-25T10:46:13.979Z,12.73
2022-09-25T10:49:04.343Z,13.30
2022-09-25T10:51:34.729Z,12.73
2022-09-25T10:54:13.806Z,12.35
2022-09-25T10:56:44.314Z,12.35
2022-09-25T10:59:23.073Z,10.50
2022-09-25T11:01:56.133Z,11.60
2022-09-25T11:04:35.601Z,11.80
2022-09-25T11:07:09.659Z,10.60
2022-09-25T11:09:46.875Z,29.60
2022-09-25T11:12:24.852Z,10.78
2022-09-25T11:15:05.574Z,9.68
2022-09-25T11:17:41.324Z,9.00
2022-09-25T11:20:32.652Z,8.63
2022-09-25T11:23:15.639Z,8.55
2022-09-25T11:25:53.640Z,8.03
2022-09-25T11:28:27.103Z,8.30
2022-09-25T11:31:02.071Z,7.72
2022-09-25T11:33:44.598Z,7.15
2022-09-25T11:36:30.127Z,7.87
2022-09-25T11:39:21.560Z,8.10
2022-09-25T11:42:09.735Z,8.38
2022-09-25T11:44:58.523Z,7.47
2022-09-25T11:47:46.660Z,7.62
2022-09-25T11:50:19.092Z,7.30
2022-09-25T11:52:53.527Z,7.65
2022-09-25T11:55:36.450Z,7.78
2022-09-25T11:58:15.768Z,7.50
2022-09-25T12:00:59.695Z,7.60
2022-09-25T12:03:35.643Z,8.68
2022-09-25T12:06:43.925Z,7.65
2022-09-25T12:09:33.914Z,7.45
2022-09-25T12:12:16.862Z,7.90
2022-09-25T12:15:02.344Z,7.37
2022-09-25T12:17:41.364Z,18.07
2022-09-25T12:20:48.303Z,8.13
2022-09-25T12:23:32.890Z,10.10
2022-09-25T12:26:18.021Z,11.48
2022-09-25T12:28:54.270Z,7.95
2022-09-25T12:31:30.535Z,11.20
2022-09-25T12:34:10.014Z,8.43
2022-09-25T12:36:55.437Z,8.63
2022-09-25T12:39:36.479Z,7.25
2022-09-25T12:42:24.684Z,22.98
2022-09-25T12:45:09.414Z,14.18
2022-09-25T12:47:48.742Z,7.60
2022-09-25T12:50:22.188Z,13.88
2022-09-25T12:53:04.339Z,8.85
2022-09-25T12:55:46.457Z,7.12
2022-09-25T12:58:24.262Z,6.90
2022-09-25T13:01:00.592Z,6.50
2022-09-25T13:03:56.845Z,8.65
2022-09-25T13:06:31.147Z,7.78
2022-09-25T13:09:39.488Z,7.28
2022-09-25T13:12:18.428Z,7.45
2022-09-25T13:15:03.890Z,7.30
2022-09-25T13:17:35.076Z,7.60
2022-09-25T13:20:31.874Z,8.03
2022-09-25T13:23:08.459Z,8.23
2022-09-25T13:26:13.682Z,7.83
2022-09-25T13:29:02.204Z,8.10
2022-09-25T13:31:36.628Z,14.90
2022-09-25T13:34:13.503Z,6.90
2022-09-25T13:36:49.850Z,8.03
2022-09-25T13:39:47.003Z,9.00
2022-09-25T13:42:32.258Z,8.98
2022-09-25T13:45:32.512Z,7.60
2022-09-25T13:48:15.717Z,8.50
2022-09-25T13:50:49.866Z,8.63
2022-09-25T13:53:26.387Z,8.83
2022-09-25T13:55:59.911Z,11.40
2022-09-25T13:58:32.985Z,8.85
2022-09-25T14:01:05.519Z,10.32
2022-09-25T14:03:50.085Z,9.18
2022-09-25T14:06:23.623Z,9.28
2022-09-25T14:08:56.597Z,10.05
2022-09-25T14:11:35.120Z,9.38
2022-09-25T14:14:14.641Z,9.73
2022-09-25T14:16:53.820Z,9.78
2022-09-25T14:19:32.232Z,9.90
2022-09-25T14:22:04.990Z,9.93
2022-09-25T14:24:35.417Z,10.78
2022-09-25T14:27:08.812Z,10.60
2022-09-25T14:29:43.113Z,10.63
2022-09-25T14:32:55.959Z,10.72
2022-09-25T14:35:36.718Z,9.73
2022-09-25T14:38:25.285Z,10.45
2022-09-25T14:40:58.759Z,10.25
2022-09-25T14:43:45.090Z,10.13
2022-09-25T14:46:21.441Z,9.08
2022-09-25T14:48:57.933Z,9.40
2022-09-25T14:51:44.985Z,8.70
2022-09-25T14:54:18.715Z,8.35
2022-09-25T14:56:52.248Z,10.00
2022-09-25T14:59:36.249Z,9.98
2022-09-25T15:02:15.808Z,7.65
2022-09-25T15:04:46.799Z,7.95
2022-09-25T15:07:19.470Z,8.30
2022-09-25T15:09:53.244Z,7.95
2022-09-25T15:12:33.920Z,7.50
2022-09-25T15:15:14.084Z,10.20
2022-09-25T15:17:59.617Z,9.83
2022-09-25T15:20:33.058Z,8.85
2022-09-25T15:23:10.298Z,8.25
2022-09-25T15:25:46.539Z,8.50
2022-09-25T15:28:19.844Z,8.15
2022-09-25T15:31:01.426Z,9.55
2022-09-25T15:33:34.338Z,8.95
2022-09-25T15:36:22.576Z,12.50
2022-09-25T15:38:58.201Z,9.78
2022-09-25T15:41:29.945Z,7.97
2022-09-25T15:44:24.281Z,8.75
2022-09-25T15:47:00.622Z,8.55
2022-09-25T15:49:36.956Z,9.00
2022-09-25T15:52:27.171Z,8.55
2022-09-25T15:55:03.058Z,8.60
2022-09-25T15:57:34.274Z,8.40
2022-09-25T16:00:28.962Z,8.10
2022-09-25T16:03:20.480Z,8.15
2022-09-25T16:05:52.480Z,7.85
2022-09-25T16:08:36.890Z,7.95
2022-09-25T16:11:25.159Z,7.37
2022-09-25T16:14:16.374Z,7.30
2022-09-25T16:16:49.710Z,6.90
2022-09-25T16:19:41.618Z,7.58
2022-09-25T16:22:24.166Z,7.37
2022-09-25T16:24:55.501Z,7.10
2022-09-25T16:27:34.653Z,7.08
2022-09-25T16:30:05.423Z,7.47
2022-09-25T16:32:35.944Z,7.03
2022-09-25T16:35:06.770Z,7.37
2022-09-25T16:37:37.536Z,7.78
2022-09-25T16:40:26.011Z,7.20
2022-09-25T16:42:58.683Z,7.00
2022-09-25T16:45:34.504Z,7.35
2022-09-25T16:48:27.506Z,6.92
2022-09-25T16:51:01.255Z,7.37
2022-09-25T16:53:31.722Z,7.92
2022-09-25T16:56:03.137Z,7.58
2022-09-25T16:58:34.186Z,7.83
2022-09-25T17:01:05.153Z,7.30
2022-09-25T17:03:37.238Z,8.63
2022-09-25T17:06:08.010Z,8.30
2022-09-25T17:08:38.407Z,7.45
2022-09-25T17:11:09.283Z,7.80
2022-09-25T17:13:40.802Z,8.58
2022-09-25T17:16:11.809Z,7.75
2022-09-25T17:18:43.113Z,7.95
2022-09-25T17:21:15.965Z,7.60
2022-09-25T17:23:47.277Z,6.95
2022-09-25T17:26:20.373Z,7.25
2022-09-25T17:28:51.602Z,7.10
2022-09-25T17:31:23.666Z,6.95
2022-09-25T17:33:54.147Z,6.97
2022-09-25T17:36:24.544Z,7.45
2022-09-25T17:38:55.006Z,7.10
2022-09-25T17:41:37.290Z,7.28
2022-09-25T17:44:10.860Z,7.05
2022-09-25T17:46:41.259Z,7.62
2022-09-25T17:49:11.752Z,7.53
2022-09-25T17:51:42.392Z,7.80
2022-09-25T17:54:13.440Z,7.85
2022-09-25T17:56:46.332Z,8.30
2022-09-25T17:59:16.819Z,9.00
2022-09-25T18:01:47.336Z,8.40
2022-09-25T18:04:21.477Z,7.65
2022-09-25T18:06:52.713Z,8.13
2022-09-25T18:09:23.160Z,7.80
2022-09-25T18:11:54.626Z,8.60
2022-09-25T18:14:25.912Z,21.85
2022-09-25T18:16:56.246Z,9.18
2022-09-25T18:19:44.737Z,7.90
2022-09-25T18:22:18.978Z,7.70
2022-09-25T18:24:52.581Z,7.78
2022-09-25T18:27:27.366Z,7.53
2022-09-25T18:29:58.343Z,6.35
2022-09-25T18:32:29.729Z,6.70
2022-09-25T18:35:01.984Z,7.05
2022-09-25T18:37:32.890Z,6.37
2022-09-25T18:40:03.581Z,15.30
2022-09-25T18:42:34.346Z,12.23
2022-09-25T18:45:06.020Z,7.45
2022-09-25T18:47:36.404Z,6.65
2022-09-25T18:50:07.875Z,7.45
2022-09-25T18:52:39.245Z,7.25
2022-09-25T18:55:09.685Z,6.53
2022-09-25T18:57:40.815Z,7.05
2022-09-25T19:00:12.444Z,7.00
2022-09-25T19:02:44.006Z,7.03
2022-09-25T19:05:16.153Z,7.25
2022-09-25T19:07:46.662Z,7.45
2022-09-25T19:10:17.112Z,7.50
2022-09-25T19:12:47.855Z,7.37
2022-09-25T19:15:18.473Z,11.53
2022-09-25T19:17:49.245Z,9.08
2022-09-25T19:20:19.632Z,12.03
2022-09-25T19:22:50.036Z,8.25
2022-09-25T19:25:22.752Z,7.17
2022-09-25T19:27:53.085Z,16.25
2022-09-25T19:30:23.666Z,13.70
2022-09-25T19:32:54.071Z,7.42
2022-09-25T19:35:24.365Z,7.25
2022-09-25T19:37:54.715Z,7.55
2022-09-25T19:40:36.514Z,7.80
2022-09-25T19:43:08.059Z,7.28
2022-09-25T19:45:38.390Z,7.42
2022-09-25T19:48:08.784Z,7.58
2022-09-25T19:50:43.333Z,7.28
2022-09-25T19:53:14.160Z,7.28
2022-09-25T19:55:44.558Z,7.80
2022-09-25T19:58:14.926Z,7.45
2022-09-25T20:00:45.258Z,7.50
2022-09-25T20:03:15.677Z,8.25
2022-09-25T20:05:48.082Z,7.80
2022-09-25T20:08:18.806Z,8.00
2022-09-25T20:10:49.299Z,7.75
2022-09-25T20:13:19.734Z,9.38
2022-09-25T20:15:50.103Z,7.50
2022-09-25T20:18:21.340Z,6.92
2022-09-25T20:20:51.736Z,7.70
2022-09-25T20:23:22.118Z,7.00
2022-09-25T20:25:52.429Z,6.85
2022-09-25T20:28:22.847Z,6.33
2022-09-25T20:30:53.292Z,6.08
2022-09-25T20:33:23.913Z,6.08
2022-09-25T20:35:54.318Z,5.87
2022-09-25T20:38:25.082Z,5.75
2022-09-25T20:40:57.258Z,6.03
2022-09-25T20:43:28.438Z,6.90
2022-09-25T20:46:04.336Z,7.80
2022-09-25T20:48:40.569Z,7.85
2022-09-25T20:51:15.513Z,6.40
2022-09-25T20:53:46.821Z,6.05
2022-09-25T20:56:17.386Z,7.47
2022-09-25T20:58:52.868Z,5.90
2022-09-25T21:01:22.766Z,6.37
2022-09-25T21:03:53.852Z,6.87
2022-09-25T21:06:27.804Z,6.47
2022-09-25T21:09:01.087Z,7.33
2022-09-25T21:11:33.102Z,6.77
2022-09-25T21:14:04.162Z,6.40
2022-09-25T21:16:34.673Z,6.83
2022-09-25T21:19:05.597Z,6.40
2022-09-25T21:21:35.976Z,6.30
2022-09-25T21:24:07.171Z,6.58
2022-09-25T21:26:37.525Z,7.22
2022-09-25T21:29:09.593Z,6.80
2022-09-25T21:31:46.622Z,7.00
2022-09-25T21:34:15.881Z,6.83
2022-09-25T21:36:47.570Z,6.78
2022-09-25T21:39:20.744Z,6.92
2022-09-25T21:41:56.317Z,12.65
2022-09-25T21:44:26.928Z,8.85
2022-09-25T21:46:57.806Z,7.78
2022-09-25T21:49:28.171Z,7.50
2022-09-25T21:51:58.497Z,7.20
2022-09-25T21:54:30.525Z,6.60
2022-09-25T21:57:00.951Z,6.62
2022-09-25T21:59:31.737Z,6.78
2022-09-25T22:02:02.129Z,6.53
2022-09-25T22:04:32.509Z,6.25
2022-09-25T22:07:03.065Z,6.47
2022-09-25T22:09:33.637Z,6.28
2022-09-25T22:12:04.267Z,6.45
2022-09-25T22:14:34.674Z,6.42
2022-09-25T22:17:05.146Z,6.08
2022-09-25T22:19:35.550Z,6.25
2022-09-25T22:22:06.101Z,6.03
2022-09-25T22:24:36.417Z,5.13
2022-09-25T22:27:06.808Z,5.87
2022-09-25T22:29:39.812Z,6.12
2022-09-25T22:32:10.219Z,6.00
2022-09-25T22:34:40.673Z,7.65
2022-09-25T22:37:12.631Z,5.67
2022-09-25T22:39:43.639Z,5.90
2022-09-25T22:42:14.137Z,5.75
2022-09-25T22:44:44.688Z,6.77
2022-09-25T22:47:15.065Z,6.22
2022-09-25T22:49:45.375Z,5.63
2022-09-25T22:52:15.864Z,5.87
2022-09-25T22:54:46.199Z,5.78
2022-09-25T22:57:16.577Z,6.17
2022-09-25T22:59:46.878Z,5.20
2022-09-25T23:02:17.274Z,5.28
2022-09-25T23:04:49.459Z,5.15
2022-09-25T23:07:19.971Z,5.63
2022-09-25T23:09:50.712Z,5.10
2022-09-25T23:12:21.182Z,4.43
2022-09-25T23:14:51.484Z,4.53
2022-09-25T23:17:21.874Z,4.60
2022-09-25T23:19:52.255Z,4.60
2022-09-25T23:22:22.649Z,4.87
2022-09-25T23:24:52.985Z,4.80
2022-09-25T23:27:23.308Z,4.25
2022-09-25T23:29:53.742Z,4.20
2022-09-25T23:32:24.154Z,4.30
2022-09-25T23:34:54.530Z,5.00
2022-09-25T23:37:24.917Z,4.50
2022-09-25T23:39:55.887Z,3.55
2022-09-25T23:42:26.687Z,4.10
2022-09-25T23:44:56.990Z,4.03
2022-09-25T23:47:27.422Z,3.80
2022-09-25T23:50:03.508Z,3.58
2022-09-25T23:52:29.988Z,3.55
2022-09-25T23:55:00.236Z,5.43
2022-09-25T23:57:30.630Z,3.70
